createdAt,value
2022-08-17T00:00:52.350Z,8.80
2022-08-17T00:01:53.256Z,8.20
2022-08-17T00:02:51.993Z,8.50
2022-08-17T00:03:51.841Z,7.00
2022-08-17T00:04:51.832Z,7.50
2022-08-17T00:05:51.843Z,6.50
2022-08-17T00:06:51.804Z,10.50
2022-08-17T00:07:51.919Z,7.20
2022-08-17T00:08:51.784Z,6.60
2022-08-17T00:09:51.774Z,9.40
2022-08-17T00:10:51.796Z,9.80
2022-08-17T00:12:34.907Z,6.60
2022-08-17T00:12:52.866Z,9.40
2022-08-17T00:13:51.734Z,5.60
2022-08-17T00:14:51.725Z,6.30
2022-08-17T00:15:51.736Z,7.10
2022-08-17T00:16:57.017Z,6.40
2022-08-17T00:17:52.703Z,8.50
2022-08-17T00:18:56.758Z,7.60
2022-08-17T00:19:52.667Z,8.20
2022-08-17T00:20:51.674Z,6.10
2022-08-17T00:22:29.402Z,7.90
2022-08-17T00:22:52.842Z,6.80
2022-08-17T00:23:51.624Z,5.30
2022-08-17T00:24:51.606Z,5.90
2022-08-17T00:25:51.623Z,7.50
2022-08-17T00:26:51.585Z,6.80
2022-08-17T00:27:51.578Z,6.70
2022-08-17T00:28:51.566Z,7.60
2022-08-17T00:29:51.558Z,7.90
2022-08-17T00:30:53.573Z,6.70
2022-08-17T00:31:51.537Z,5.90
2022-08-17T00:33:10.957Z,7.50
2022-08-17T00:33:52.509Z,10.00
2022-08-17T00:34:51.498Z,8.20
2022-08-17T00:35:51.490Z,5.60
2022-08-17T00:36:51.507Z,7.80
2022-08-17T00:37:51.469Z,6.60
2022-08-17T00:38:51.451Z,8.40
2022-08-17T00:39:51.490Z,7.50
2022-08-17T00:40:51.834Z,8.70
2022-08-17T00:41:51.441Z,10.40
2022-08-17T00:42:51.576Z,8.40
2022-08-17T00:43:51.401Z,9.80
2022-08-17T00:44:51.390Z,8.40
2022-08-17T00:45:51.402Z,9.90
2022-08-17T00:46:51.380Z,6.20
2022-08-17T00:47:51.365Z,7.20
2022-08-17T00:48:51.340Z,9.80
2022-08-17T00:49:51.331Z,6.50
2022-08-17T00:50:51.341Z,7.40
2022-08-17T00:51:51.313Z,10.30
2022-08-17T00:52:51.578Z,8.10
2022-08-17T00:53:51.296Z,7.60
2022-08-17T00:54:51.283Z,7.30
2022-08-17T00:55:51.290Z,10.50
2022-08-17T00:56:51.255Z,9.70
2022-08-17T00:57:54.747Z,6.90
2022-08-17T00:58:51.235Z,8.40
2022-08-17T01:00:02.298Z,8.00
2022-08-17T01:00:52.290Z,6.50
2022-08-17T01:01:51.196Z,6.30
2022-08-17T01:02:51.258Z,10.50
2022-08-17T01:03:51.195Z,7.50
2022-08-17T01:04:51.165Z,8.40
2022-08-17T01:05:51.155Z,8.70
2022-08-17T01:06:51.136Z,8.50
2022-08-17T01:07:51.193Z,9.10
2022-08-17T01:08:51.136Z,9.90
2022-08-17T01:09:52.115Z,8.30
2022-08-17T01:10:59.457Z,7.70
2022-08-17T01:11:52.087Z,6.90
2022-08-17T01:12:51.210Z,7.00
2022-08-17T01:13:51.086Z,10.60
2022-08-17T01:14:51.057Z,7.10
2022-08-17T01:15:51.043Z,7.20
2022-08-17T01:16:51.059Z,9.60
2022-08-17T01:17:51.021Z,9.00
2022-08-17T01:18:51.011Z,6.90
2022-08-17T01:19:50.996Z,7.60
2022-08-17T01:20:50.980Z,8.00
2022-08-17T01:21:50.978Z,6.60
2022-08-17T01:22:51.214Z,13.20
2022-08-17T01:23:50.957Z,6.40
2022-08-17T01:24:50.963Z,9.40
2022-08-17T01:25:50.946Z,8.40
2022-08-17T01:26:50.921Z,8.40
2022-08-17T01:27:50.910Z,9.60
2022-08-17T01:28:54.572Z,8.60
2022-08-17T01:29:50.891Z,12.00
2022-08-17T01:30:58.639Z,8.70
2022-08-17T01:31:51.859Z,11.60
2022-08-17T01:32:51.089Z,8.10
2022-08-17T01:33:50.848Z,8.50
2022-08-17T01:34:51.042Z,8.70
2022-08-17T01:35:50.824Z,11.60
2022-08-17T01:36:50.811Z,8.10
2022-08-17T01:37:50.803Z,7.40
2022-08-17T01:38:50.810Z,10.20
2022-08-17T01:39:50.793Z,6.40
2022-08-17T01:40:50.762Z,8.60
2022-08-17T01:41:51.752Z,11.30
2022-08-17T01:42:50.915Z,6.40
2022-08-17T01:43:50.766Z,8.40
2022-08-17T01:44:50.714Z,6.40
2022-08-17T01:46:02.805Z,10.50
2022-08-17T01:46:51.703Z,6.60
2022-08-17T01:47:50.684Z,6.50
2022-08-17T01:48:50.693Z,9.40
2022-08-17T01:49:50.671Z,6.70
2022-08-17T01:50:50.652Z,8.70
2022-08-17T01:51:50.643Z,6.80
2022-08-17T01:52:50.775Z,6.70
2022-08-17T01:53:50.645Z,7.90
2022-08-17T01:54:50.604Z,7.10
2022-08-17T01:55:50.596Z,9.80
2022-08-17T01:56:50.587Z,9.50
2022-08-17T01:57:50.575Z,10.20
2022-08-17T01:58:50.588Z,6.90
2022-08-17T01:59:50.554Z,7.20
2022-08-17T02:01:00.226Z,7.00
2022-08-17T02:01:51.567Z,6.20
2022-08-17T02:02:50.640Z,8.60
2022-08-17T02:03:59.488Z,9.10
2022-08-17T02:04:51.519Z,10.30
2022-08-17T02:05:50.488Z,10.90
2022-08-17T02:06:54.021Z,11.30
2022-08-17T02:07:59.799Z,9.50
2022-08-17T02:09:02.754Z,9.60
2022-08-17T02:09:52.713Z,8.80
2022-08-17T02:10:50.458Z,8.00
2022-08-17T02:11:50.421Z,8.30
2022-08-17T02:12:50.545Z,8.20
2022-08-17T02:13:57.868Z,6.80
2022-08-17T02:14:51.387Z,10.30
2022-08-17T02:15:50.372Z,7.10
2022-08-17T02:16:50.389Z,6.80
2022-08-17T02:17:54.695Z,8.50
2022-08-17T02:18:50.340Z,10.80
2022-08-17T02:19:50.331Z,11.80
2022-08-17T02:20:50.321Z,9.20
2022-08-17T02:21:50.400Z,10.50
2022-08-17T02:22:50.391Z,13.80
2022-08-17T02:23:50.289Z,9.10
2022-08-17T02:24:58.909Z,9.60
2022-08-17T02:25:51.263Z,7.60
2022-08-17T02:26:50.283Z,7.40
2022-08-17T02:27:50.244Z,8.30
2022-08-17T02:28:50.223Z,9.30
2022-08-17T02:29:50.222Z,11.30
2022-08-17T02:31:01.081Z,9.50
2022-08-17T02:31:51.215Z,9.40
2022-08-17T02:32:50.371Z,13.20
2022-08-17T02:34:00.481Z,9.00
2022-08-17T02:34:51.164Z,8.30
2022-08-17T02:35:50.177Z,11.30
2022-08-17T02:36:50.135Z,8.00
2022-08-17T02:37:51.827Z,12.20
2022-08-17T02:38:51.143Z,8.80
2022-08-17T02:39:50.237Z,10.00
2022-08-17T02:40:50.098Z,8.00
2022-08-17T02:41:50.096Z,8.10
2022-08-17T02:42:50.243Z,9.30
2022-08-17T02:43:50.086Z,8.60
2022-08-17T02:44:50.054Z,7.40
2022-08-17T02:45:50.043Z,8.30
2022-08-17T02:46:50.034Z,8.30
2022-08-17T02:47:50.036Z,10.00
2022-08-17T02:48:50.007Z,8.10
2022-08-17T02:49:54.253Z,8.40
2022-08-17T02:50:50.978Z,12.30
2022-08-17T02:51:49.977Z,14.00
2022-08-17T02:52:57.305Z,10.30
2022-08-17T02:53:50.978Z,10.60
2022-08-17T02:54:49.936Z,9.20
2022-08-17T02:55:49.936Z,8.90
2022-08-17T02:56:49.919Z,8.10
2022-08-17T02:57:49.912Z,8.90
2022-08-17T02:58:49.919Z,9.70
2022-08-17T02:59:49.906Z,10.40
2022-08-17T03:00:49.869Z,9.30
2022-08-17T03:01:49.888Z,9.30
2022-08-17T03:02:49.983Z,9.50
2022-08-17T03:03:49.841Z,11.40
2022-08-17T03:04:49.853Z,16.40
2022-08-17T03:05:49.821Z,8.70
2022-08-17T03:06:49.829Z,13.00
2022-08-17T03:07:49.796Z,10.00
2022-08-17T03:08:49.782Z,9.80
2022-08-17T03:09:49.801Z,9.20
2022-08-17T03:10:49.762Z,9.50
2022-08-17T03:11:49.751Z,11.10
2022-08-17T03:12:49.955Z,8.50
2022-08-17T03:13:49.730Z,12.50
2022-08-17T03:14:49.741Z,9.50
2022-08-17T03:15:49.714Z,11.60
2022-08-17T03:16:49.691Z,7.10
2022-08-17T03:17:49.682Z,10.10
2022-08-17T03:18:49.670Z,9.90
2022-08-17T03:19:49.682Z,9.10
2022-08-17T03:20:49.715Z,8.60
2022-08-17T03:21:54.947Z,8.10
2022-08-17T03:22:53.448Z,8.10
2022-08-17T03:23:49.634Z,8.80
2022-08-17T03:24:50.604Z,10.00
2022-08-17T03:25:49.592Z,11.00
2022-08-17T03:26:49.584Z,9.30
2022-08-17T03:27:49.571Z,10.60
2022-08-17T03:28:49.583Z,12.50
2022-08-17T03:29:49.546Z,9.70
2022-08-17T03:30:49.564Z,14.80
2022-08-17T03:31:49.615Z,9.10
2022-08-17T03:32:49.736Z,11.20
2022-08-17T03:33:49.504Z,11.60
2022-08-17T03:34:49.498Z,12.10
2022-08-17T03:35:49.486Z,8.70
2022-08-17T03:36:49.496Z,10.40
2022-08-17T03:37:56.951Z,9.70
2022-08-17T03:38:50.446Z,11.40
2022-08-17T03:39:49.513Z,10.20
2022-08-17T03:40:57.892Z,13.80
2022-08-17T03:41:50.417Z,10.90
2022-08-17T03:42:49.503Z,10.50
2022-08-17T03:43:49.399Z,9.30
2022-08-17T03:44:49.378Z,10.10
2022-08-17T03:45:49.366Z,9.90
2022-08-17T03:46:49.378Z,11.60
2022-08-17T03:47:49.348Z,9.80
2022-08-17T03:48:49.341Z,11.40
2022-08-17T03:49:49.326Z,11.80
2022-08-17T03:50:49.323Z,12.80
2022-08-17T03:51:49.322Z,10.20
2022-08-17T03:52:51.808Z,10.70
2022-08-17T03:53:49.286Z,11.60
2022-08-17T03:54:49.274Z,12.20
2022-08-17T03:55:49.259Z,8.90
2022-08-17T03:56:49.270Z,9.90
2022-08-17T03:57:56.041Z,8.30
2022-08-17T03:58:49.229Z,8.80
2022-08-17T03:59:49.212Z,10.70
2022-08-17T04:00:49.207Z,8.60
2022-08-17T04:01:49.248Z,11.50
2022-08-17T04:02:49.361Z,9.60
2022-08-17T04:03:49.171Z,9.90
2022-08-17T04:04:49.161Z,9.40
2022-08-17T04:05:49.151Z,13.20
2022-08-17T04:06:49.162Z,9.40
2022-08-17T04:07:49.128Z,12.90
2022-08-17T04:08:49.120Z,9.60
2022-08-17T04:09:49.114Z,15.10
2022-08-17T04:10:49.095Z,9.20
2022-08-17T04:11:49.082Z,8.40
2022-08-17T04:12:49.404Z,10.10
2022-08-17T04:13:49.056Z,9.90
2022-08-17T04:14:53.088Z,12.90
2022-08-17T04:15:50.032Z,10.10
2022-08-17T04:16:49.024Z,14.50
2022-08-17T04:17:49.014Z,10.90
2022-08-17T04:18:49.023Z,11.50
2022-08-17T04:19:48.993Z,13.90
2022-08-17T04:20:48.984Z,11.30
2022-08-17T04:21:48.974Z,12.00
2022-08-17T04:22:49.139Z,10.20
2022-08-17T04:23:48.944Z,11.10
2022-08-17T04:24:48.944Z,10.70
2022-08-17T04:25:48.924Z,13.80
2022-08-17T04:26:53.232Z,9.50
2022-08-17T04:29:00.129Z,12.50
2022-08-17T04:30:00.138Z,13.00
2022-08-17T04:31:00.107Z,14.50
2022-08-17T04:32:00.079Z,10.20
2022-08-17T04:33:06.380Z,12.40
2022-08-17T04:34:01.079Z,13.30
2022-08-17T04:35:00.038Z,14.00
2022-08-17T04:36:00.064Z,15.60
2022-08-17T04:37:00.019Z,12.30
2022-08-17T04:38:00.014Z,16.40
2022-08-17T04:39:00.000Z,14.70
2022-08-17T04:40:03.833Z,10.90
2022-08-17T04:40:59.992Z,10.70
2022-08-17T04:41:59.987Z,10.70
2022-08-17T04:43:00.179Z,11.10
2022-08-17T04:43:59.957Z,14.30
2022-08-17T04:44:59.931Z,12.90
2022-08-17T04:45:59.948Z,13.40
2022-08-17T04:46:59.910Z,11.90
2022-08-17T04:47:59.901Z,11.80
2022-08-17T04:48:59.892Z,11.90
2022-08-17T04:49:59.873Z,14.10
2022-08-17T04:50:59.891Z,10.10
2022-08-17T04:52:04.108Z,10.30
2022-08-17T04:53:00.187Z,13.50
2022-08-17T04:53:59.843Z,14.10
2022-08-17T04:54:59.814Z,14.10
2022-08-17T04:55:59.813Z,12.40
2022-08-17T04:56:59.825Z,12.40
2022-08-17T04:57:59.813Z,13.10
2022-08-17T04:58:59.775Z,10.30
2022-08-17T04:59:59.770Z,10.20
2022-08-17T05:00:59.781Z,11.00
2022-08-17T05:01:59.766Z,12.10
2022-08-17T05:02:59.732Z,12.70
2022-08-17T05:03:59.722Z,14.70
2022-08-17T05:04:59.707Z,16.70
2022-08-17T05:05:59.703Z,10.30
2022-08-17T05:06:59.716Z,15.10
2022-08-17T05:07:59.675Z,14.80
2022-08-17T05:08:59.685Z,11.50
2022-08-17T05:09:59.657Z,12.00
2022-08-17T05:10:59.646Z,10.20
2022-08-17T05:11:59.636Z,12.10
2022-08-17T05:12:59.626Z,12.30
2022-08-17T05:13:59.617Z,13.50
2022-08-17T05:14:59.628Z,13.40
2022-08-17T05:15:59.589Z,12.40
2022-08-17T05:16:59.578Z,12.80
2022-08-17T05:17:59.567Z,12.10
2022-08-17T05:18:59.576Z,10.40
2022-08-17T05:19:59.548Z,11.30
2022-08-17T05:20:59.528Z,9.10
2022-08-17T05:21:59.529Z,15.90
2022-08-17T05:22:59.512Z,12.30
2022-08-17T05:23:59.600Z,11.30
2022-08-17T05:24:59.480Z,13.40
2022-08-17T05:25:59.478Z,12.50
2022-08-17T05:27:02.685Z,12.90
2022-08-17T05:28:00.479Z,11.90
2022-08-17T05:29:02.486Z,16.50
2022-08-17T05:29:59.431Z,10.40
2022-08-17T05:30:59.418Z,14.30
2022-08-17T05:31:59.411Z,9.70
2022-08-17T05:32:59.420Z,11.60
2022-08-17T05:33:59.418Z,13.10
2022-08-17T05:34:59.372Z,16.50
2022-08-17T05:35:59.370Z,13.90
2022-08-17T05:36:59.353Z,14.50
2022-08-17T05:37:59.344Z,12.30
2022-08-17T05:38:59.332Z,10.90
2022-08-17T05:39:59.379Z,12.60
2022-08-17T05:40:59.305Z,18.40
2022-08-17T05:41:59.302Z,12.00
2022-08-17T05:42:59.290Z,12.50
2022-08-17T05:43:59.275Z,14.30
2022-08-17T05:44:59.285Z,11.50
2022-08-17T05:45:59.255Z,10.80
2022-08-17T05:46:59.244Z,10.70
2022-08-17T05:47:59.236Z,10.90
2022-08-17T05:48:59.223Z,13.80
2022-08-17T05:49:59.243Z,13.30
2022-08-17T05:50:59.216Z,12.50
2022-08-17T05:51:59.185Z,13.30
2022-08-17T05:52:59.175Z,15.60
2022-08-17T05:53:59.172Z,12.90
2022-08-17T05:54:59.155Z,13.00
2022-08-17T05:55:59.177Z,11.50
2022-08-17T05:56:59.127Z,13.40
2022-08-17T05:57:59.125Z,11.90
2022-08-17T05:58:59.106Z,13.50
2022-08-17T05:59:59.104Z,10.00
2022-08-17T06:00:59.189Z,14.20
2022-08-17T06:01:59.085Z,13.90
2022-08-17T06:02:59.070Z,15.40
2022-08-17T06:03:59.060Z,11.10
2022-08-17T06:04:59.037Z,12.50
2022-08-17T06:05:59.037Z,12.30
2022-08-17T06:06:59.038Z,16.90
2022-08-17T06:07:59.010Z,19.10
2022-08-17T06:08:58.999Z,15.00
2022-08-17T06:09:58.988Z,12.20
2022-08-17T06:10:58.975Z,18.40
2022-08-17T06:11:58.974Z,15.90
2022-08-17T06:12:58.971Z,14.40
2022-08-17T06:13:58.968Z,13.40
2022-08-17T06:14:58.931Z,15.20
2022-08-17T06:15:58.920Z,24.30
2022-08-17T06:16:58.910Z,12.60
2022-08-17T06:17:58.927Z,13.90
2022-08-17T06:18:58.892Z,20.40
2022-08-17T06:19:58.880Z,12.70
2022-08-17T06:20:58.862Z,11.70
2022-08-17T06:21:58.852Z,13.00
2022-08-17T06:22:58.864Z,12.10
2022-08-17T06:23:58.835Z,14.60
2022-08-17T06:24:58.821Z,19.20
2022-08-17T06:25:58.812Z,13.80
2022-08-17T06:26:58.813Z,10.30
2022-08-17T06:27:58.783Z,10.60
2022-08-17T06:28:58.802Z,17.10
2022-08-17T06:29:58.773Z,13.80
2022-08-17T06:31:00.070Z,13.30
2022-08-17T06:31:58.744Z,12.60
2022-08-17T06:32:58.734Z,17.40
2022-08-17T06:33:58.754Z,11.50
2022-08-17T06:34:58.716Z,10.80
2022-08-17T06:35:58.707Z,12.20
2022-08-17T06:36:59.571Z,11.60
2022-08-17T06:37:58.677Z,13.50
2022-08-17T06:38:58.667Z,10.10
2022-08-17T06:39:58.832Z,18.10
2022-08-17T06:40:58.638Z,16.40
2022-08-17T06:41:58.644Z,14.70
2022-08-17T06:43:05.616Z,11.80
2022-08-17T06:43:59.617Z,17.00
2022-08-17T06:44:58.624Z,20.50
2022-08-17T06:45:58.614Z,12.00
2022-08-17T06:46:58.569Z,16.10
2022-08-17T06:47:58.567Z,16.60
2022-08-17T06:48:58.551Z,14.70
2022-08-17T06:49:58.551Z,14.00
2022-08-17T06:50:58.548Z,13.80
2022-08-17T06:51:58.526Z,15.10
2022-08-17T06:52:58.777Z,14.30
2022-08-17T06:53:58.500Z,15.50
2022-08-17T06:54:58.512Z,8.30
2022-08-17T06:55:58.512Z,12.10
2022-08-17T06:56:58.461Z,12.30
2022-08-17T06:57:58.455Z,13.10
2022-08-17T06:58:58.441Z,10.50
2022-08-17T06:59:58.431Z,14.00
2022-08-17T07:00:58.944Z,12.90
2022-08-17T07:01:58.432Z,15.00
2022-08-17T07:02:58.399Z,14.40
2022-08-17T07:03:58.390Z,13.60
2022-08-17T07:04:58.374Z,15.40
2022-08-17T07:05:58.362Z,11.50
2022-08-17T07:06:58.374Z,12.10
2022-08-17T07:07:58.342Z,16.10
2022-08-17T07:08:58.331Z,12.00
2022-08-17T07:09:58.333Z,13.60
2022-08-17T07:10:58.322Z,15.40
2022-08-17T07:11:58.324Z,15.40
2022-08-17T07:12:58.314Z,10.90
2022-08-17T07:13:58.283Z,16.50
2022-08-17T07:14:58.265Z,10.10
2022-08-17T07:15:58.262Z,26.20
2022-08-17T07:16:58.255Z,17.00
2022-08-17T07:17:58.515Z,15.00
2022-08-17T07:18:58.227Z,17.70
2022-08-17T07:19:58.223Z,9.30
2022-08-17T07:20:58.202Z,11.40
2022-08-17T07:21:58.196Z,12.90
2022-08-17T07:23:00.158Z,10.80
2022-08-17T07:23:58.201Z,11.40
2022-08-17T07:24:58.166Z,11.90
2022-08-17T07:25:58.155Z,8.80
2022-08-17T07:26:58.137Z,11.60
2022-08-17T07:27:58.290Z,8.40
2022-08-17T07:28:58.118Z,9.30
2022-08-17T07:29:58.138Z,8.50
2022-08-17T07:30:58.109Z,11.40
2022-08-17T07:31:58.081Z,6.80
2022-08-17T07:32:58.067Z,7.50
2022-08-17T07:33:58.058Z,10.50
2022-08-17T07:34:58.053Z,8.60
2022-08-17T07:35:58.065Z,7.50
2022-08-17T07:36:58.023Z,7.30
2022-08-17T07:37:58.024Z,10.90
2022-08-17T07:38:58.030Z,5.60
2022-08-17T07:40:04.470Z,5.50
2022-08-17T07:40:58.999Z,12.80
2022-08-17T07:41:58.980Z,5.60
2022-08-17T07:42:57.962Z,8.90
2022-08-17T07:43:57.975Z,7.60
2022-08-17T07:44:57.935Z,6.10
2022-08-17T07:45:57.956Z,10.00
2022-08-17T07:46:57.914Z,11.00
2022-08-17T07:47:57.904Z,12.90
2022-08-17T07:48:57.925Z,9.40
2022-08-17T07:49:57.884Z,7.90
2022-08-17T07:50:57.891Z,5.70
2022-08-17T07:51:57.885Z,8.60
2022-08-17T07:52:57.852Z,5.40
2022-08-17T07:54:13.214Z,5.60
2022-08-17T07:54:58.828Z,7.90
2022-08-17T07:55:57.834Z,11.10
2022-08-17T07:56:57.824Z,5.90
2022-08-17T07:57:57.804Z,5.30
2022-08-17T07:58:57.805Z,6.40
2022-08-17T07:59:57.798Z,8.30
2022-08-17T08:00:57.765Z,8.30
2022-08-17T08:01:58.210Z,7.40
2022-08-17T08:02:57.737Z,6.00
2022-08-17T08:03:57.726Z,4.50
2022-08-17T08:05:01.907Z,5.80
2022-08-17T08:05:57.716Z,7.10
2022-08-17T08:06:57.717Z,6.20
2022-08-17T08:07:57.708Z,4.70
2022-08-17T08:08:57.669Z,6.20
2022-08-17T08:09:57.690Z,5.00
2022-08-17T08:10:57.656Z,6.00
2022-08-17T08:11:57.659Z,5.80
2022-08-17T08:12:57.636Z,9.60
2022-08-17T08:13:57.616Z,6.90
2022-08-17T08:14:57.607Z,3.70
2022-08-17T08:15:57.619Z,11.80
2022-08-17T08:16:57.607Z,5.50
2022-08-17T08:17:57.597Z,6.70
2022-08-17T08:18:58.071Z,4.20
2022-08-17T08:19:57.553Z,9.90
2022-08-17T08:20:57.544Z,3.40
2022-08-17T08:21:57.523Z,5.90
2022-08-17T08:22:57.528Z,7.00
2022-08-17T08:23:57.525Z,6.30
2022-08-17T08:24:57.494Z,8.60
2022-08-17T08:25:57.489Z,8.10
2022-08-17T08:26:57.482Z,5.40
2022-08-17T08:27:57.464Z,10.60
2022-08-17T08:28:57.480Z,7.00
2022-08-17T08:29:57.446Z,11.20
2022-08-17T08:30:57.453Z,7.10
2022-08-17T08:31:57.414Z,4.30
2022-08-17T08:32:57.618Z,5.90
2022-08-17T08:33:57.396Z,5.80
2022-08-17T08:35:02.141Z,4.10
2022-08-17T08:35:58.397Z,6.10
2022-08-17T08:37:15.975Z,5.90
2022-08-17T08:37:58.351Z,5.30
2022-08-17T08:38:57.353Z,4.50
2022-08-17T08:39:57.491Z,8.50
2022-08-17T08:40:57.326Z,7.90
2022-08-17T08:41:57.334Z,9.60
2022-08-17T08:42:57.309Z,8.30
2022-08-17T08:43:57.288Z,4.20
2022-08-17T08:45:00.719Z,10.80
2022-08-17T08:45:58.269Z,5.50
2022-08-17T08:46:57.271Z,9.70
2022-08-17T08:47:57.271Z,7.00
2022-08-17T08:49:00.184Z,8.20
2022-08-17T08:50:05.597Z,5.20
2022-08-17T08:50:58.220Z,3.90
2022-08-17T08:51:57.211Z,5.50
2022-08-17T08:52:57.243Z,11.80
2022-08-17T08:53:57.192Z,3.70
2022-08-17T08:54:57.184Z,4.20
2022-08-17T08:55:57.164Z,6.50
2022-08-17T08:57:22.143Z,8.00
2022-08-17T08:57:58.165Z,5.50
2022-08-17T08:58:57.134Z,4.90
2022-08-17T08:59:58.157Z,7.80
2022-08-17T09:00:57.134Z,3.90
2022-08-17T09:01:57.187Z,6.50
2022-08-17T09:02:57.095Z,6.00
2022-08-17T09:04:06.724Z,5.40
2022-08-17T09:05:13.979Z,5.60
2022-08-17T09:05:58.055Z,4.30
2022-08-17T09:06:57.049Z,4.40
2022-08-17T09:07:57.502Z,4.80
2022-08-17T09:08:57.047Z,5.90
2022-08-17T09:09:59.318Z,5.40
2022-08-17T09:10:57.017Z,6.30
2022-08-17T09:12:01.987Z,7.10
2022-08-17T09:12:57.980Z,6.10
2022-08-17T09:13:56.968Z,3.50
2022-08-17T09:14:56.981Z,3.40
2022-08-17T09:15:56.939Z,4.90
2022-08-17T09:16:56.939Z,6.10
2022-08-17T09:18:28.518Z,8.60
2022-08-17T09:19:02.629Z,5.50
2022-08-17T09:19:57.921Z,4.70
2022-08-17T09:20:56.891Z,7.90
2022-08-17T09:21:56.882Z,10.60
2022-08-17T09:22:56.871Z,5.40
2022-08-17T09:23:56.851Z,7.60
2022-08-17T09:24:56.876Z,5.40
2022-08-17T09:25:56.832Z,5.60
2022-08-17T09:26:56.830Z,4.10
2022-08-17T09:27:56.814Z,5.80
2022-08-17T09:28:56.804Z,10.10
2022-08-17T09:29:56.792Z,5.70
2022-08-17T09:30:56.806Z,7.20
2022-08-17T09:31:56.773Z,2.70
2022-08-17T09:32:56.758Z,5.30
2022-08-17T09:33:56.754Z,6.80
2022-08-17T09:34:56.743Z,5.10
2022-08-17T09:35:56.747Z,7.20
2022-08-17T09:36:56.739Z,4.30
2022-08-17T09:37:56.707Z,5.60
2022-08-17T09:38:56.706Z,4.60
2022-08-17T09:39:56.742Z,4.30
2022-08-17T09:40:56.680Z,2.60
2022-08-17T09:41:56.689Z,6.20
2022-08-17T09:42:56.660Z,11.10
2022-08-17T09:43:56.641Z,2.70
2022-08-17T09:44:56.628Z,3.50
2022-08-17T09:45:56.618Z,7.30
2022-08-17T09:46:56.643Z,4.00
2022-08-17T09:47:56.598Z,3.20
2022-08-17T09:48:56.600Z,7.80
2022-08-17T09:49:56.579Z,5.10
2022-08-17T09:51:04.717Z,4.60
2022-08-17T09:51:57.573Z,8.20
2022-08-17T09:52:56.550Z,5.80
2022-08-17T09:54:09.504Z,6.30
2022-08-17T09:54:57.533Z,6.00
2022-08-17T09:55:56.512Z,5.80
2022-08-17T09:57:11.921Z,4.30
2022-08-17T09:57:57.504Z,6.40
2022-08-17T09:58:56.493Z,4.40
2022-08-17T09:59:56.474Z,5.80
2022-08-17T10:00:57.805Z,3.20
2022-08-17T10:01:56.454Z,4.60
2022-08-17T10:02:56.464Z,3.10
2022-08-17T10:03:56.457Z,6.50
2022-08-17T10:04:56.416Z,5.40
2022-08-17T10:05:57.004Z,8.70
2022-08-17T10:06:56.395Z,4.00
2022-08-17T10:07:56.406Z,3.80
2022-08-17T10:08:56.377Z,5.30
2022-08-17T10:09:56.378Z,5.70
2022-08-17T10:10:57.040Z,3.30
2022-08-17T10:11:56.338Z,6.90
2022-08-17T10:12:56.355Z,6.00
2022-08-17T10:13:56.317Z,6.40
2022-08-17T10:14:56.349Z,5.40
2022-08-17T10:15:56.299Z,7.00
2022-08-17T10:16:56.298Z,5.80
2022-08-17T10:17:56.271Z,4.10
2022-08-17T10:18:56.270Z,4.60
2022-08-17T10:19:56.277Z,8.40
2022-08-17T10:20:56.272Z,8.00
2022-08-17T10:22:01.189Z,4.00
2022-08-17T10:22:57.235Z,5.50
2022-08-17T10:23:56.217Z,2.90
2022-08-17T10:25:21.702Z,5.10
2022-08-17T10:25:57.195Z,4.40
2022-08-17T10:26:57.452Z,6.00
2022-08-17T10:27:56.173Z,5.90
2022-08-17T10:29:03.934Z,4.20
2022-08-17T10:29:56.171Z,2.60
2022-08-17T10:31:16.646Z,5.80
2022-08-17T10:31:57.130Z,8.50
2022-08-17T10:32:56.123Z,4.30
2022-08-17T10:33:56.102Z,4.10
2022-08-17T10:34:56.122Z,6.50
2022-08-17T10:35:57.245Z,5.10
2022-08-17T10:36:56.075Z,8.80
2022-08-17T10:37:56.066Z,5.90
2022-08-17T10:38:56.057Z,4.30
2022-08-17T10:39:56.079Z,3.90
2022-08-17T10:40:56.056Z,3.90
2022-08-17T10:41:56.020Z,3.20
2022-08-17T10:42:56.018Z,9.60
2022-08-17T10:44:38.693Z,7.00
2022-08-17T10:44:57.002Z,3.60
2022-08-17T10:46:09.477Z,3.00
2022-08-17T10:46:56.991Z,5.70
2022-08-17T10:47:59.001Z,3.60
2022-08-17T10:48:56.959Z,3.70
2022-08-17T10:49:55.942Z,4.20
2022-08-17T10:50:55.949Z,11.10
2022-08-17T10:51:55.910Z,6.70
2022-08-17T10:52:55.910Z,3.30
2022-08-17T10:53:55.920Z,9.30
2022-08-17T10:54:58.110Z,3.40
2022-08-17T10:55:55.871Z,5.30
2022-08-17T10:56:55.863Z,4.50
2022-08-17T10:57:55.881Z,5.70
2022-08-17T10:58:55.842Z,5.60
2022-08-17T10:59:55.833Z,6.90
2022-08-17T11:00:55.887Z,4.30
2022-08-17T11:01:55.806Z,6.80
2022-08-17T11:02:55.824Z,5.00
2022-08-17T11:03:55.783Z,3.60
2022-08-17T11:04:55.776Z,4.80
2022-08-17T11:05:55.763Z,4.30
2022-08-17T11:06:55.757Z,5.00
2022-08-17T11:07:55.745Z,4.70
2022-08-17T11:08:55.756Z,2.50
2022-08-17T11:09:55.755Z,3.00
2022-08-17T11:10:55.720Z,4.40
2022-08-17T11:11:55.697Z,5.30
2022-08-17T11:12:55.687Z,4.60
2022-08-17T11:13:55.680Z,5.10
2022-08-17T11:14:55.696Z,3.90
2022-08-17T11:15:58.871Z,4.40
2022-08-17T11:16:55.650Z,4.60
2022-08-17T11:17:55.639Z,3.40
2022-08-17T11:18:55.654Z,8.30
2022-08-17T11:19:55.620Z,5.30
2022-08-17T11:20:55.640Z,4.40
2022-08-17T11:21:55.602Z,4.50
2022-08-17T11:22:55.590Z,5.50
2022-08-17T11:23:55.581Z,5.00
2022-08-17T11:24:55.572Z,4.70
2022-08-17T11:25:55.581Z,3.10
2022-08-17T11:26:55.542Z,4.10
2022-08-17T11:27:55.532Z,4.70
2022-08-17T11:28:55.522Z,9.60
2022-08-17T11:30:01.397Z,3.40
2022-08-17T11:30:56.521Z,6.50
2022-08-17T11:31:55.484Z,4.30
2022-08-17T11:32:55.905Z,4.10
2022-08-17T11:33:55.465Z,3.00
2022-08-17T11:34:55.460Z,3.10
2022-08-17T11:35:55.464Z,3.90
2022-08-17T11:36:55.434Z,5.20
2022-08-17T11:37:55.427Z,3.00
2022-08-17T11:38:55.413Z,4.40
2022-08-17T11:39:55.494Z,3.10
2022-08-17T11:40:55.413Z,5.60
2022-08-17T11:41:55.377Z,2.70
2022-08-17T11:42:55.370Z,5.60
2022-08-17T11:43:55.378Z,5.70
2022-08-17T11:44:55.346Z,6.40
2022-08-17T11:45:55.337Z,3.80
2022-08-17T11:46:55.330Z,4.00
2022-08-17T11:48:23.653Z,5.00
2022-08-17T11:48:56.308Z,8.00
2022-08-17T11:49:55.289Z,5.80
2022-08-17T11:50:55.285Z,3.90
2022-08-17T11:51:55.272Z,4.20
2022-08-17T11:52:55.284Z,3.70
2022-08-17T11:54:14.740Z,4.40
2022-08-17T11:55:12.191Z,5.10
2022-08-17T11:55:56.251Z,9.40
2022-08-17T11:56:55.221Z,4.00
2022-08-17T11:57:55.241Z,3.00
2022-08-17T11:58:55.199Z,5.00
2022-08-17T11:59:55.194Z,4.40
2022-08-17T12:00:55.203Z,5.20
2022-08-17T12:01:55.163Z,4.60
2022-08-17T12:02:55.163Z,7.80
2022-08-17T12:03:56.013Z,9.50
2022-08-17T12:04:55.204Z,5.70
2022-08-17T12:05:55.149Z,8.20
2022-08-17T12:06:55.123Z,4.10
2022-08-17T12:07:55.094Z,4.70
2022-08-17T12:08:55.168Z,4.50
2022-08-17T12:09:55.107Z,8.00
2022-08-17T12:10:55.078Z,4.90
2022-08-17T12:12:12.609Z,8.50
2022-08-17T12:12:56.048Z,4.80
2022-08-17T12:13:55.039Z,4.50
2022-08-17T12:15:11.922Z,4.90
2022-08-17T12:15:56.037Z,4.80
2022-08-17T12:16:55.009Z,2.30
2022-08-17T12:17:55.384Z,8.20
2022-08-17T12:18:55.010Z,4.70
2022-08-17T12:19:54.977Z,2.60
2022-08-17T12:20:56.869Z,6.60
2022-08-17T12:21:54.988Z,5.00
2022-08-17T12:22:55.007Z,4.40
2022-08-17T12:23:54.950Z,9.60
2022-08-17T12:24:54.919Z,6.20
2022-08-17T12:25:54.910Z,5.70
2022-08-17T12:26:54.891Z,5.60
2022-08-17T12:28:06.223Z,6.80
2022-08-17T12:28:55.892Z,8.40
2022-08-17T12:29:54.870Z,7.90
2022-08-17T12:30:54.852Z,2.70
2022-08-17T12:31:54.844Z,7.70
2022-08-17T12:32:54.832Z,4.90
2022-08-17T12:33:54.843Z,8.30
2022-08-17T12:34:54.815Z,3.60
2022-08-17T12:35:58.902Z,13.30
2022-08-17T12:36:54.794Z,7.00
2022-08-17T12:37:54.803Z,7.20
2022-08-17T12:38:54.766Z,12.20
2022-08-17T12:39:54.836Z,9.10
2022-08-17T12:40:54.742Z,10.50
2022-08-17T12:41:57.428Z,6.00
2022-08-17T12:42:55.727Z,8.00
2022-08-17T12:43:54.709Z,7.00
2022-08-17T12:44:54.718Z,7.50
2022-08-17T12:45:55.521Z,10.40
2022-08-17T12:46:54.675Z,7.80
2022-08-17T12:47:54.667Z,6.70
2022-08-17T12:48:58.683Z,5.20
2022-08-17T12:49:55.652Z,3.50
2022-08-17T12:50:54.629Z,8.00
2022-08-17T12:51:54.627Z,2.90
2022-08-17T12:52:57.432Z,4.60
2022-08-17T12:53:55.627Z,6.30
2022-08-17T12:54:54.598Z,6.80
2022-08-17T12:55:54.601Z,9.50
2022-08-17T12:56:54.569Z,4.90
2022-08-17T12:57:54.663Z,2.60
2022-08-17T12:58:54.551Z,4.60
2022-08-17T12:59:54.564Z,2.60
2022-08-17T13:00:54.553Z,4.10
2022-08-17T13:01:54.577Z,3.80
2022-08-17T13:02:54.513Z,4.00
2022-08-17T13:03:54.503Z,4.60
2022-08-17T13:04:54.513Z,5.80
2022-08-17T13:05:54.502Z,5.00
2022-08-17T13:07:00.085Z,4.70
2022-08-17T13:07:55.463Z,6.80
2022-08-17T13:08:54.447Z,6.20
2022-08-17T13:09:54.454Z,5.00
2022-08-17T13:10:54.427Z,5.50